createdAt,value
2018-05-03T00:00:26.179Z,23.1
2018-05-03T00:01:16.068Z,23.1
2018-05-03T00:02:07.938Z,23.1
2018-05-03T00:02:56.689Z,23.1
2018-05-03T00:03:47.028Z,23.1
2018-05-03T00:04:36.275Z,23.1
2018-05-03T00:05:26.656Z,23.1
2018-05-03T00:06:16.917Z,23.1
2018-05-03T00:07:06.813Z,23.1
2018-05-03T00:07:56.619Z,23.1
2018-05-03T00:08:46.708Z,23.1
2018-05-03T00:09:36.701Z,23.1
2018-05-03T00:10:27.520Z,23.1
2018-05-03T00:11:15.803Z,23.1
2018-05-03T00:12:07.426Z,23.1
2018-05-03T00:12:57.506Z,23.1
2018-05-03T00:13:46.807Z,23.1
2018-05-03T00:14:37.089Z,23.1
2018-05-03T00:15:27.789Z,23.1
2018-05-03T00:16:17.781Z,23.1
2018-05-03T00:17:08.365Z,23.1
2018-05-03T00:17:58.092Z,23.1
2018-05-03T00:18:47.969Z,23.1
2018-05-03T00:19:38.219Z,23.1
2018-05-03T00:20:28.578Z,23.1
2018-05-03T00:21:18.689Z,23.1
2018-05-03T00:22:08.543Z,23.1
2018-05-03T00:22:57.943Z,23.1
2018-05-03T00:23:48.554Z,23.1
2018-05-03T00:24:38.437Z,23.1
2018-05-03T00:25:28.659Z,23.1
2018-05-03T00:26:17.613Z,23.1
2018-05-03T00:27:08.850Z,23.1
2018-05-03T00:27:57.837Z,23.1
2018-05-03T00:28:48.967Z,23.1
2018-05-03T00:29:39.109Z,23.1
2018-05-03T00:30:28.526Z,23.1
2018-05-03T00:31:18.875Z,23.1
2018-05-03T00:32:08.681Z,23.1
2018-05-03T00:32:59.602Z,23.1
2018-05-03T00:33:49.077Z,23.1
2018-05-03T00:34:38.370Z,23.1
2018-05-03T00:35:28.460Z,23.1
2018-05-03T00:36:19.639Z,23.1
2018-05-03T00:37:09.367Z,23.1
2018-05-03T00:37:58.892Z,23.1
2018-05-03T00:38:48.713Z,23.1
2018-05-03T00:39:38.450Z,23.1
2018-05-03T00:40:29.095Z,23.1
2018-05-03T00:41:19.159Z,23.1
2018-05-03T00:42:08.966Z,23.1
2018-05-03T00:42:59.576Z,23.1
2018-05-03T00:43:49.329Z,23.1
2018-05-03T00:44:39.699Z,23.1
2018-05-03T00:45:29.993Z,23.1
2018-05-03T00:46:19.744Z,23.1
2018-05-03T00:47:09.263Z,23.1
2018-05-03T00:48:00.450Z,23.1
2018-05-03T00:48:49.906Z,23.1
2018-05-03T00:49:40.571Z,23.1
2018-05-03T00:50:28.933Z,23.1
2018-05-03T00:51:19.613Z,23.1
2018-05-03T00:52:10.512Z,23.1
2018-05-03T00:53:00.829Z,23.1
2018-05-03T00:53:50.886Z,23.1
2018-05-03T00:54:39.828Z,23.1
2018-05-03T00:55:31.090Z,23.1
2018-05-03T00:56:20.901Z,23.1
2018-05-03T00:57:10.639Z,23.1
2018-05-03T00:58:00.646Z,23.1
2018-05-03T00:58:51.041Z,23.1
2018-05-03T00:59:41.690Z,23.1
2018-05-03T01:00:31.660Z,23.1
2018-05-03T01:01:21.768Z,23.1
2018-05-03T01:02:11.567Z,23.1
2018-05-03T01:03:01.069Z,23.1
2018-05-03T01:03:51.082Z,23.1
2018-05-03T01:04:41.723Z,23.1
2018-05-03T01:05:31.180Z,23.1
2018-05-03T01:06:21.087Z,23.1
2018-05-03T01:07:11.924Z,23.1
2018-05-03T01:08:00.863Z,23.1
2018-05-03T01:08:52.025Z,23.1
2018-05-03T01:09:42.385Z,23.1
2018-05-03T01:10:31.075Z,23.1
2018-05-03T01:11:21.956Z,23.1
2018-05-03T01:12:11.734Z,23.1
2018-05-03T01:13:01.875Z,23.1
2018-05-03T01:13:52.166Z,23.1
2018-05-03T01:14:41.665Z,23.1
2018-05-03T01:15:32.843Z,23.1
2018-05-03T01:16:21.352Z,23.1
2018-05-03T01:17:12.403Z,23.1
2018-05-03T01:18:02.041Z,23.1
2018-05-03T01:18:52.267Z,23.1
2018-05-03T01:19:42.469Z,23.1
2018-05-03T01:20:32.678Z,23.1
2018-05-03T01:21:23.078Z,23.1
2018-05-03T01:22:12.497Z,23.1
2018-05-03T01:23:02.320Z,23.1
2018-05-03T01:23:51.819Z,23.1
2018-05-03T01:24:43.067Z,23.1
2018-05-03T01:25:32.530Z,23.1
2018-05-03T01:26:23.441Z,23.1
2018-05-03T01:27:13.162Z,23.1
2018-05-03T01:28:02.510Z,23.1
2018-05-03T01:28:53.362Z,23.1
2018-05-03T01:29:43.171Z,23.1
2018-05-03T01:30:33.249Z,23.1
2018-05-03T01:31:23.624Z,23.1
2018-05-03T01:32:12.988Z,23.1
2018-05-03T01:33:03.560Z,23.1
2018-05-03T01:33:53.214Z,23.1
2018-05-03T01:34:42.431Z,23.1
2018-05-03T01:35:33.447Z,23.1
2018-05-03T01:36:23.807Z,23.1
2018-05-03T01:37:12.897Z,23.1
2018-05-03T01:38:03.290Z,23.1
2018-05-03T01:38:53.589Z,23.1
2018-05-03T01:39:43.404Z,23.1
2018-05-03T01:40:33.746Z,23.1
2018-05-03T01:41:23.724Z,23.1
2018-05-03T01:42:13.584Z,23.1
2018-05-03T01:43:03.378Z,23.1
2018-05-03T01:43:54.553Z,23.1
2018-05-03T01:44:44.071Z,23.1
2018-05-03T01:45:34.158Z,23.1
2018-05-03T01:46:24.196Z,23.1
2018-05-03T01:47:13.140Z,23.1
2018-05-03T01:48:03.508Z,23.1
2018-05-03T01:48:53.048Z,23.1
2018-05-03T01:49:43.929Z,23.1
2018-05-03T01:50:33.723Z,23.1
2018-05-03T01:51:23.625Z,23.1
2018-05-03T01:52:14.725Z,23.1
2018-05-03T01:53:04.682Z,23.1
2018-05-03T01:53:54.864Z,23.1
2018-05-03T01:54:45.108Z,23.1
2018-05-03T01:55:34.954Z,23.1
2018-05-03T01:56:24.734Z,23.1
2018-05-03T01:57:15.152Z,23.1
2018-05-03T01:58:05.130Z,23.1
2018-05-03T01:58:55.163Z,23.1
2018-05-03T01:59:45.055Z,23.1
2018-05-03T02:00:35.594Z,23.1
2018-05-03T02:01:24.577Z,23.1
2018-05-03T02:02:14.835Z,23.1
2018-05-03T02:03:04.675Z,23.1
2018-05-03T02:03:54.785Z,23.1
2018-05-03T02:04:45.845Z,23.1
2018-05-03T02:05:35.594Z,23.1
2018-05-03T02:06:26.047Z,23.1
2018-05-03T02:07:15.542Z,23.1
2018-05-03T02:08:06.389Z,23
2018-05-03T02:08:55.894Z,23.1
2018-05-03T02:09:45.681Z,23
2018-05-03T02:10:35.419Z,23.1
2018-05-03T02:11:26.379Z,23
2018-05-03T02:12:15.919Z,23.1
2018-05-03T02:13:06.761Z,23
2018-05-03T02:13:56.859Z,23
2018-05-03T02:14:46.896Z,23
2018-05-03T02:15:37.009Z,23
2018-05-03T02:16:26.470Z,23.1
2018-05-03T02:17:17.061Z,23
2018-05-03T02:18:06.987Z,23
2018-05-03T02:18:57.198Z,23.1
2018-05-03T02:19:46.995Z,23.1
2018-05-03T02:20:37.835Z,23.1
2018-05-03T02:21:27.910Z,23
2018-05-03T02:22:17.184Z,23
2018-05-03T02:23:08.030Z,23
2018-05-03T02:23:57.254Z,23
2018-05-03T02:24:47.900Z,23
2018-05-03T02:25:37.141Z,23
2018-05-03T02:26:28.310Z,23
2018-05-03T02:27:17.780Z,23
2018-05-03T02:28:07.670Z,23
2018-05-03T02:28:58.245Z,23
2018-05-03T02:29:47.527Z,23
2018-05-03T02:30:38.603Z,23
2018-05-03T02:31:27.595Z,23
2018-05-03T02:32:17.969Z,23
2018-05-03T02:33:07.736Z,23
2018-05-03T02:33:57.872Z,23
2018-05-03T02:34:47.996Z,23
2018-05-03T02:35:37.895Z,23
2018-05-03T02:36:28.204Z,23
2018-05-03T02:37:17.398Z,23
2018-05-03T02:38:08.066Z,23
2018-05-03T02:38:58.110Z,23
2018-05-03T02:39:48.356Z,23
2018-05-03T02:40:39.033Z,23
2018-05-03T02:41:27.743Z,23
2018-05-03T02:42:18.050Z,23
2018-05-03T02:43:08.351Z,23
2018-05-03T02:43:57.918Z,23
2018-05-03T02:44:47.118Z,23
2018-05-03T02:45:38.084Z,23
2018-05-03T02:46:28.320Z,23
2018-05-03T02:47:19.265Z,22.9
2018-05-03T02:48:08.631Z,23
2018-05-03T02:48:58.758Z,23
2018-05-03T02:49:49.186Z,22.9
2018-05-03T02:50:39.775Z,23
2018-05-03T02:51:28.958Z,23
2018-05-03T02:52:18.463Z,23
2018-05-03T02:53:09.697Z,23
2018-05-03T02:53:59.148Z,22.9
2018-05-03T02:54:49.562Z,23
2018-05-03T02:55:39.314Z,23
2018-05-03T02:56:29.644Z,23
2018-05-03T02:57:19.199Z,23
2018-05-03T02:58:08.575Z,23
2018-05-03T02:58:58.695Z,22.9
2018-05-03T02:59:49.645Z,22.9
2018-05-03T03:00:39.935Z,22.9
2018-05-03T03:01:30.620Z,23
2018-05-03T03:02:21.495Z,23
2018-05-03T03:03:10.154Z,22.9
2018-05-03T03:04:00.849Z,22.9
2018-05-03T03:04:50.279Z,22.9
2018-05-03T03:05:39.788Z,22.9
2018-05-03T03:06:30.678Z,22.9
2018-05-03T03:07:20.744Z,22.9
2018-05-03T03:08:10.773Z,23
2018-05-03T03:09:00.923Z,22.9
2018-05-03T03:09:51.856Z,23
2018-05-03T03:10:40.952Z,22.9
2018-05-03T03:11:30.509Z,22.9
2018-05-03T03:12:20.531Z,22.9
2018-05-03T03:13:11.405Z,22.9
2018-05-03T03:14:00.419Z,22.9
2018-05-03T03:14:51.628Z,22.9
2018-05-03T03:15:41.073Z,22.9
2018-05-03T03:16:32.141Z,22.9
2018-05-03T03:17:20.980Z,22.9
2018-05-03T03:18:10.755Z,22.9
2018-05-03T03:19:01.832Z,22.9
2018-05-03T03:19:51.655Z,22.9
2018-05-03T03:20:40.055Z,22.9
2018-05-03T03:21:31.621Z,22.9
2018-05-03T03:22:20.852Z,22.9
2018-05-03T03:23:11.894Z,22.9
2018-05-03T03:24:01.679Z,22.9
2018-05-03T03:24:52.801Z,22.9
2018-05-03T03:25:40.713Z,22.9
2018-05-03T03:26:30.255Z,22.9
2018-05-03T03:27:21.744Z,22.9
2018-05-03T03:28:11.265Z,22.9
2018-05-03T03:29:00.983Z,22.9
2018-05-03T03:29:51.124Z,22.9
2018-05-03T03:30:42.577Z,22.9
2018-05-03T03:31:32.396Z,22.9
2018-05-03T03:32:22.156Z,22.9
2018-05-03T03:33:13.153Z,22.9
2018-05-03T03:34:02.493Z,23
2018-05-03T03:34:52.272Z,22.9
2018-05-03T03:35:43.175Z,22.9
2018-05-03T03:36:31.719Z,22.9
2018-05-03T03:37:23.332Z,23
2018-05-03T03:38:12.782Z,22.9
2018-05-03T03:39:02.800Z,23
2018-05-03T03:39:52.645Z,22.9
2018-05-03T03:40:42.436Z,22.9
2018-05-03T03:41:33.025Z,23
2018-05-03T03:42:23.348Z,23
2018-05-03T03:43:13.470Z,22.9
2018-05-03T03:44:03.497Z,23
2018-05-03T03:44:54.313Z,22.9
2018-05-03T03:45:44.425Z,22.9
2018-05-03T03:46:33.953Z,23
2018-05-03T03:47:23.770Z,22.9
2018-05-03T03:48:14.340Z,23
2018-05-03T03:49:04.401Z,23
2018-05-03T03:49:54.179Z,23
2018-05-03T03:50:44.232Z,23
2018-05-03T03:51:34.284Z,23
2018-05-03T03:52:23.784Z,22.9
2018-05-03T03:53:14.936Z,23
2018-05-03T03:54:04.220Z,22.9
2018-05-03T03:54:54.542Z,22.9
2018-05-03T03:55:44.397Z,22.9
2018-05-03T03:56:34.176Z,23
2018-05-03T03:57:24.200Z,23
2018-05-03T03:58:14.561Z,23
2018-05-03T03:59:06.695Z,22.9
2018-05-03T03:59:54.441Z,23
2018-05-03T04:00:45.029Z,23
2018-05-03T04:01:35.180Z,23
2018-05-03T04:02:25.584Z,23
2018-05-03T04:03:14.130Z,23
2018-05-03T04:04:04.700Z,22.9
2018-05-03T04:04:55.092Z,22.9
2018-05-03T04:05:44.611Z,23
2018-05-03T04:06:35.707Z,22.9
2018-05-03T04:07:24.985Z,23
2018-05-03T04:08:14.833Z,23
2018-05-03T04:09:05.389Z,23
2018-05-03T04:09:55.709Z,22.9
2018-05-03T04:10:45.240Z,23
2018-05-03T04:11:35.637Z,23
2018-05-03T04:12:26.065Z,23
2018-05-03T04:13:16.081Z,22.9
2018-05-03T04:14:05.835Z,22.9
2018-05-03T04:14:56.367Z,23
2018-05-03T04:15:46.500Z,23
2018-05-03T04:16:36.264Z,23
2018-05-03T04:17:26.029Z,22.9
2018-05-03T04:18:16.400Z,23
2018-05-03T04:19:06.982Z,23
2018-05-03T04:19:55.959Z,22.9
2018-05-03T04:20:46.846Z,23
2018-05-03T04:21:36.370Z,23
2018-05-03T04:22:29.631Z,23
2018-05-03T04:23:17.087Z,23
2018-05-03T04:24:06.492Z,23
2018-05-03T04:24:56.905Z,23
2018-05-03T04:25:46.137Z,23
2018-05-03T04:26:36.822Z,23
2018-05-03T04:27:26.307Z,23
2018-05-03T04:28:16.122Z,23
2018-05-03T04:29:06.749Z,23
2018-05-03T04:29:57.081Z,23
2018-05-03T04:30:46.583Z,23
2018-05-03T04:31:35.812Z,23
2018-05-03T04:32:27.253Z,23
2018-05-03T04:33:16.751Z,23
2018-05-03T04:34:07.231Z,23
2018-05-03T04:34:56.650Z,23
2018-05-03T04:35:47.307Z,23
2018-05-03T04:36:37.075Z,23
2018-05-03T04:37:27.913Z,23
2018-05-03T04:38:16.422Z,23
2018-05-03T04:39:07.048Z,23
2018-05-03T04:39:58.111Z,23
2018-05-03T04:40:47.026Z,23
2018-05-03T04:41:38.207Z,23.1
2018-05-03T04:42:27.771Z,23
2018-05-03T04:43:18.066Z,23
2018-05-03T04:44:08.426Z,23
2018-05-03T04:44:58.252Z,23
2018-05-03T04:45:47.983Z,23
2018-05-03T04:46:39.131Z,23
2018-05-03T04:47:28.984Z,23.1
2018-05-03T04:48:18.969Z,23
2018-05-03T04:49:07.956Z,23.1
2018-05-03T04:49:58.617Z,23
2018-05-03T04:50:48.644Z,23.1
2018-05-03T04:51:39.474Z,23
2018-05-03T04:52:28.725Z,23.1
2018-05-03T04:53:19.351Z,23
2018-05-03T04:54:09.571Z,23
2018-05-03T04:54:59.197Z,23
2018-05-03T04:55:49.284Z,23.1
2018-05-03T04:56:39.604Z,23.1
2018-05-03T04:57:29.749Z,23.1
2018-05-03T04:58:19.410Z,23.1
2018-05-03T04:59:10.005Z,23.1
2018-05-03T04:59:59.827Z,23.1
2018-05-03T05:00:50.188Z,23.1
2018-05-03T05:01:39.452Z,23.1
2018-05-03T05:02:30.125Z,23.1
2018-05-03T05:03:19.512Z,23.1
2018-05-03T05:04:09.887Z,23.1
2018-05-03T05:04:59.697Z,23.1
2018-05-03T05:05:50.279Z,23.1
2018-05-03T05:06:40.105Z,23.1
2018-05-03T05:07:30.160Z,23.1
2018-05-03T05:08:19.958Z,23.1
2018-05-03T05:09:10.370Z,23.1
2018-05-03T05:10:00.155Z,23.1
2018-05-03T05:10:50.990Z,23.1
2018-05-03T05:11:40.559Z,23.1
2018-05-03T05:12:30.540Z,23.1
2018-05-03T05:13:20.890Z,23.1
2018-05-03T05:14:10.101Z,23.1
2018-05-03T05:15:01.030Z,23.1
2018-05-03T05:15:51.083Z,23.1
2018-05-03T05:16:41.131Z,23.1
2018-05-03T05:17:31.560Z,23.1
2018-05-03T05:18:20.651Z,23.1
2018-05-03T05:19:11.080Z,23.1
2018-05-03T05:20:01.068Z,23.1
2018-05-03T05:20:51.447Z,23.1
2018-05-03T05:21:41.502Z,23.1
2018-05-03T05:22:31.509Z,23.1
2018-05-03T05:23:22.023Z,23.1
2018-05-03T05:24:11.469Z,23.1
2018-05-03T05:25:02.104Z,23.1
2018-05-03T05:25:51.338Z,23.1
2018-05-03T05:26:41.059Z,23.1
2018-05-03T05:27:32.004Z,23.1
2018-05-03T05:28:21.981Z,23.1
2018-05-03T05:29:11.656Z,23.1
2018-05-03T05:30:02.442Z,23.1
2018-05-03T05:30:53.348Z,23.1
2018-05-03T05:31:42.276Z,23.1
2018-05-03T05:32:31.823Z,23.1
2018-05-03T05:33:22.153Z,23.1
2018-05-03T05:34:11.906Z,23.1
2018-05-03T05:35:01.458Z,23.1
2018-05-03T05:35:52.325Z,23.1
2018-05-03T05:36:42.095Z,23.1
2018-05-03T05:37:32.746Z,23.1
2018-05-03T05:38:22.801Z,23.2
2018-05-03T05:39:12.975Z,23.1
2018-05-03T05:40:02.444Z,23.1
2018-05-03T05:40:52.476Z,23.1
2018-05-03T05:41:43.341Z,23.1
2018-05-03T05:42:32.652Z,23.1
2018-05-03T05:43:23.228Z,23.1
2018-05-03T05:44:12.992Z,23.1
2018-05-03T05:45:02.856Z,23.1
2018-05-03T05:45:53.151Z,23.1
2018-05-03T05:46:43.487Z,23.1
2018-05-03T05:47:33.772Z,23.1
2018-05-03T05:48:23.175Z,23.2
2018-05-03T05:49:13.665Z,23.2
2018-05-03T05:50:03.757Z,23.2
2018-05-03T05:50:53.232Z,23.2
2018-05-03T05:51:43.302Z,23.2
2018-05-03T05:52:33.093Z,23.2
2018-05-03T05:53:23.587Z,23.2
2018-05-03T05:54:14.395Z,23.2
2018-05-03T05:55:03.632Z,23.2
2018-05-03T05:55:53.620Z,23.2
2018-05-03T05:56:45.351Z,23.2
2018-05-03T05:57:34.035Z,23.2
2018-05-03T05:58:24.670Z,23.2
2018-05-03T05:59:14.520Z,23.2
2018-05-03T06:00:04.029Z,23.2
2018-05-03T06:00:53.529Z,23.2
2018-05-03T06:01:44.422Z,23.2
2018-05-03T06:02:34.458Z,23.2
2018-05-03T06:03:24.005Z,23.2
2018-05-03T06:04:14.937Z,23.2
2018-05-03T06:05:04.447Z,23.2
2018-05-03T06:05:54.674Z,23.2
2018-05-03T06:06:45.032Z,23.2
2018-05-03T06:07:34.578Z,23.2
2018-05-03T06:08:24.902Z,23.2
2018-05-03T06:09:14.965Z,23.2
2018-05-03T06:10:05.190Z,23.2
2018-05-03T06:10:55.315Z,23.2
2018-05-03T06:11:44.867Z,23.2
2018-05-03T06:12:35.017Z,23.2
2018-05-03T06:13:24.750Z,23.3
2018-05-03T06:14:15.878Z,23.3
2018-05-03T06:15:04.876Z,23.2
2018-05-03T06:15:56.005Z,23.2
2018-05-03T06:16:44.990Z,23.2
2018-05-03T06:17:35.856Z,23.3
2018-05-03T06:18:25.634Z,23.2
2018-05-03T06:19:16.015Z,23.3
2018-05-03T06:20:06.081Z,23.3
2018-05-03T06:20:56.189Z,23.2
2018-05-03T06:21:45.982Z,23.3
2018-05-03T06:22:35.727Z,23.3
2018-05-03T06:23:25.332Z,23.3
2018-05-03T06:24:16.135Z,23.3
2018-05-03T06:25:06.515Z,23.3
2018-05-03T06:25:57.224Z,23.3
2018-05-03T06:26:46.478Z,23.3
2018-05-03T06:27:36.462Z,23.3
2018-05-03T06:28:25.424Z,23.3
2018-05-03T06:29:15.820Z,23.3
2018-05-03T06:30:07.080Z,23.3
2018-05-03T06:30:56.052Z,23.3
2018-05-03T06:31:46.768Z,23.3
2018-05-03T06:32:37.121Z,23.3
2018-05-03T06:33:26.023Z,23.3
2018-05-03T06:34:16.922Z,23.3
2018-05-03T06:35:06.713Z,23.3
2018-05-03T06:35:56.762Z,23.3
2018-05-03T06:36:47.602Z,23.3
2018-05-03T06:37:37.462Z,23.3
2018-05-03T06:38:26.952Z,23.3
2018-05-03T06:39:17.651Z,23.3
2018-05-03T06:40:06.591Z,23.3
2018-05-03T06:40:57.176Z,23.3
2018-05-03T06:41:47.211Z,23.3
2018-05-03T06:42:37.438Z,23.3
2018-05-03T06:43:27.114Z,23.3
2018-05-03T06:44:18.222Z,23.3
2018-05-03T06:45:08.055Z,23.3
2018-05-03T06:45:57.603Z,23.3
2018-05-03T06:46:46.152Z,23.3
2018-05-03T06:47:37.412Z,23.3
2018-05-03T06:48:28.427Z,23.3
2018-05-03T06:49:15.517Z,23.3
2018-05-03T06:50:06.622Z,23.3
2018-05-03T06:50:56.613Z,23.3
2018-05-03T06:51:46.698Z,23.3
2018-05-03T06:52:36.577Z,23.3
2018-05-03T06:53:28.417Z,23.3
2018-05-03T06:54:18.073Z,23.3
2018-05-03T06:55:08.007Z,23.3
2018-05-03T06:55:57.881Z,23.3
2018-05-03T06:56:47.925Z,23.3
2018-05-03T06:57:38.809Z,23.3
2018-05-03T06:58:27.491Z,23.3
2018-05-03T06:59:18.938Z,23.3
2018-05-03T07:00:08.273Z,23.3
2018-05-03T07:00:58.485Z,23.3
2018-05-03T07:01:49.184Z,23.3
2018-05-03T07:02:38.622Z,23.3
2018-05-03T07:03:28.517Z,23.3
2018-05-03T07:04:20.894Z,23.3
2018-05-03T07:05:09.124Z,23.3
2018-05-03T07:05:58.899Z,23.3
2018-05-03T07:06:48.997Z,23.3
2018-05-03T07:07:38.512Z,23.3
2018-05-03T07:08:28.567Z,23.3
2018-05-03T07:09:19.495Z,23.3
2018-05-03T07:10:08.876Z,23.3
2018-05-03T07:10:58.835Z,23.3
2018-05-03T07:11:48.881Z,23.3
2018-05-03T07:12:39.270Z,23.3
2018-05-03T07:13:29.795Z,23.3
2018-05-03T07:14:18.869Z,23.3
2018-05-03T07:15:09.049Z,23.3
2018-05-03T07:15:59.865Z,23.3
2018-05-03T07:16:50.103Z,23.3
2018-05-03T07:17:38.992Z,23.3
2018-05-03T07:18:29.678Z,23.3
2018-05-03T07:19:19.169Z,23.3
2018-05-03T07:20:09.494Z,23.4
2018-05-03T07:20:59.551Z,23.3
2018-05-03T07:21:49.669Z,23.3
2018-05-03T07:22:40.612Z,23.3
2018-05-03T07:23:30.029Z,23.3
2018-05-03T07:24:20.364Z,23.3
2018-05-03T07:25:09.400Z,23.4
2018-05-03T07:26:00.781Z,23.3
2018-05-03T07:26:51.460Z,23.3
2018-05-03T07:27:40.530Z,23.3
2018-05-03T07:28:29.864Z,23.3
2018-05-03T07:29:20.421Z,23.3
2018-05-03T07:30:10.869Z,23.4
2018-05-03T07:31:01.096Z,23.3
2018-05-03T07:31:50.653Z,23.4
2018-05-03T07:32:41.066Z,23.4
2018-05-03T07:33:31.745Z,23.3
2018-05-03T07:34:21.439Z,23.4
2018-05-03T07:35:11.158Z,23.4
2018-05-03T07:36:01.854Z,23.4
2018-05-03T07:36:51.593Z,23.4
2018-05-03T07:37:42.178Z,23.4
2018-05-03T07:38:32.545Z,23.4
2018-05-03T07:39:21.562Z,23.4
2018-05-03T07:40:12.093Z,23.4
2018-05-03T07:41:03.915Z,23.3
2018-05-03T07:41:51.574Z,23.4
2018-05-03T07:42:42.638Z,23.4
2018-05-03T07:43:32.219Z,23.4
2018-05-03T07:44:22.000Z,23.4
2018-05-03T07:45:11.968Z,23.4
2018-05-03T07:46:02.706Z,23.4
2018-05-03T07:46:52.382Z,23.4
2018-05-03T07:47:42.724Z,23.4
2018-05-03T07:48:32.043Z,23.4
2018-05-03T07:49:21.885Z,23.4
2018-05-03T07:50:11.796Z,23.4
2018-05-03T07:51:02.514Z,23.4
2018-05-03T07:51:51.761Z,23.4
2018-05-03T07:52:41.958Z,23.4
2018-05-03T07:53:30.905Z,23.4
2018-05-03T07:54:21.758Z,23.4
2018-05-03T07:55:12.452Z,23.4
2018-05-03T07:56:02.080Z,23.4
2018-05-03T07:56:52.569Z,23.4
2018-05-03T07:57:42.333Z,23.4
2018-05-03T07:58:31.474Z,23.4
2018-05-03T07:59:22.102Z,23.4
2018-05-03T08:00:11.995Z,23.4
2018-05-03T08:01:02.472Z,23.4
2018-05-03T08:01:52.882Z,23.4
2018-05-03T08:02:43.317Z,23.4
2018-05-03T08:03:33.280Z,23.4
2018-05-03T08:04:22.763Z,23.4
2018-05-03T08:05:14.254Z,23.4
2018-05-03T08:06:04.143Z,23.4
2018-05-03T08:06:54.205Z,23.4
2018-05-03T08:07:43.193Z,23.4
2018-05-03T08:08:33.287Z,23.4
2018-05-03T08:09:23.635Z,23.4
2018-05-03T08:10:14.058Z,23.4
2018-05-03T08:11:05.834Z,23.4
2018-05-03T08:11:53.690Z,23.4
2018-05-03T08:12:45.609Z,23.4
2018-05-03T08:13:34.468Z,23.4
2018-05-03T08:14:24.858Z,23.4
2018-05-03T08:15:15.141Z,23.4
2018-05-03T08:16:05.586Z,23.4
2018-05-03T08:16:55.385Z,23.4
2018-05-03T08:17:44.250Z,23.4
2018-05-03T08:18:35.164Z,23.4
2018-05-03T08:19:24.622Z,23.4
2018-05-03T08:20:15.052Z,23.4
2018-05-03T08:21:05.292Z,23.4
2018-05-03T08:21:55.650Z,23.4
2018-05-03T08:22:44.658Z,23.4
2018-05-03T08:23:35.056Z,23.4
2018-05-03T08:24:25.860Z,23.4
2018-05-03T08:25:15.106Z,23.4
2018-05-03T08:26:05.158Z,23.4
2018-05-03T08:26:55.514Z,23.4
2018-05-03T08:27:44.607Z,23.4
2018-05-03T08:28:37.372Z,23.4
2018-05-03T08:29:25.462Z,23.4
2018-05-03T08:30:15.473Z,23.4
2018-05-03T08:31:06.159Z,23.4
2018-05-03T08:31:55.814Z,23.4
2018-05-03T08:32:46.278Z,23.4
2018-05-03T08:33:36.851Z,23.4
2018-05-03T08:34:26.705Z,23.4
2018-05-03T08:35:16.141Z,23.4
2018-05-03T08:36:06.223Z,23.4
2018-05-03T08:36:57.114Z,23.4
2018-05-03T08:37:46.080Z,23.4
2018-05-03T08:38:36.948Z,23.4
2018-05-03T08:39:27.203Z,23.4
2018-05-03T08:40:16.866Z,23.4
2018-05-03T08:41:06.732Z,23.4
2018-05-03T08:41:57.225Z,23.4
2018-05-03T08:42:47.224Z,23.4
2018-05-03T08:43:37.360Z,23.4
2018-05-03T08:44:27.483Z,23.4
2018-05-03T08:45:17.765Z,23.4
2018-05-03T08:46:07.107Z,23.4
2018-05-03T08:46:57.891Z,23.4
2018-05-03T08:47:46.581Z,23.4
2018-05-03T08:48:37.540Z,23.4
2018-05-03T08:49:27.693Z,23.4
2018-05-03T08:50:17.335Z,23.4
2018-05-03T08:51:06.862Z,23.4
2018-05-03T08:51:56.996Z,23.4
2018-05-03T08:52:48.473Z,23.4
2018-05-03T08:53:37.895Z,23.4
2018-05-03T08:54:28.521Z,23.5
2018-05-03T08:55:18.273Z,23.4
2018-05-03T08:56:07.505Z,23.4
2018-05-03T08:56:57.959Z,23.4
2018-05-03T08:57:48.291Z,23.4
2018-05-03T08:58:38.566Z,23.4
2018-05-03T08:59:28.604Z,23.4
2018-05-03T09:00:18.458Z,23.4
2018-05-03T09:01:08.760Z,23.4
2018-05-03T09:02:00.318Z,23.4
2018-05-03T09:02:48.935Z,23.4
2018-05-03T09:03:39.284Z,23.4
2018-05-03T09:04:27.768Z,23.4
2018-05-03T09:05:18.750Z,23.4
2018-05-03T09:06:09.142Z,23.4
2018-05-03T09:06:58.948Z,23.4
2018-05-03T09:07:50.874Z,23.4
2018-05-03T09:08:39.053Z,23.4
2018-05-03T09:09:29.445Z,23.4
2018-05-03T09:10:18.632Z,23.4
2018-05-03T09:11:09.324Z,23.4
2018-05-03T09:11:59.643Z,23.4
2018-05-03T09:12:49.695Z,23.4
2018-05-03T09:13:39.790Z,23.4
2018-05-03T09:14:29.626Z,23.4
2018-05-03T09:15:19.344Z,23.5
2018-05-03T09:16:09.114Z,23.4
2018-05-03T09:16:59.504Z,23.4
2018-05-03T09:17:50.131Z,23.4
2018-05-03T09:18:39.860Z,23.5
2018-05-03T09:19:30.240Z,23.4
2018-05-03T09:20:18.947Z,23.4
2018-05-03T09:21:10.364Z,23.5
2018-05-03T09:21:59.317Z,23.4
2018-05-03T09:22:49.667Z,23.5
2018-05-03T09:23:40.928Z,23.5
2018-05-03T09:24:30.958Z,23.4
2018-05-03T09:25:20.385Z,23.5
2018-05-03T09:26:10.167Z,23.4
2018-05-03T09:27:00.189Z,23.4
2018-05-03T09:27:50.598Z,23.5
2018-05-03T09:28:40.387Z,23.4
2018-05-03T09:29:30.559Z,23.4
2018-05-03T09:30:20.336Z,23.4
2018-05-03T09:31:10.893Z,23.5
2018-05-03T09:31:59.499Z,23.5
2018-05-03T09:32:49.434Z,23.4
2018-05-03T09:33:40.056Z,23.5
2018-05-03T09:34:28.864Z,23.5
2018-05-03T09:35:20.137Z,23.5
2018-05-03T09:36:10.340Z,23.5
2018-05-03T09:37:00.698Z,23.5
2018-05-03T09:37:50.483Z,23.4
2018-05-03T09:38:41.227Z,23.5
2018-05-03T09:39:30.963Z,23.5
2018-05-03T09:40:21.935Z,23.5
2018-05-03T09:41:12.238Z,23.5
2018-05-03T09:42:02.262Z,23.4
2018-05-03T09:42:52.158Z,23.5
2018-05-03T09:43:41.307Z,23.4
2018-05-03T09:44:31.317Z,23.5
2018-05-03T09:45:22.039Z,23.4
2018-05-03T09:46:11.621Z,23.5
2018-05-03T09:47:02.460Z,23.5
2018-05-03T09:47:52.225Z,23.5
2018-05-03T09:48:42.838Z,23.5
2018-05-03T09:49:32.081Z,23.5
2018-05-03T09:50:22.714Z,23.4
2018-05-03T09:51:12.193Z,23.5
2018-05-03T09:52:02.570Z,23.5
2018-05-03T09:52:52.392Z,23.5
2018-05-03T09:53:42.426Z,23.4
2018-05-03T09:54:32.743Z,23.5
2018-05-03T09:55:21.972Z,23.5
2018-05-03T09:56:12.297Z,23.5
2018-05-03T09:57:02.100Z,23.5
2018-05-03T09:57:52.712Z,23.5
2018-05-03T09:58:42.805Z,23.5
2018-05-03T09:59:34.591Z,23.5
2018-05-03T10:00:23.645Z,23.5
2018-05-03T10:01:12.977Z,23.5
2018-05-03T10:02:03.133Z,23.5
2018-05-03T10:02:52.547Z,23.5
2018-05-03T10:03:43.489Z,23.5
2018-05-03T10:04:33.250Z,23.5
2018-05-03T10:05:22.715Z,23.4
2018-05-03T10:06:14.281Z,23.5
2018-05-03T10:07:03.530Z,23.5
2018-05-03T10:07:52.767Z,23.5
2018-05-03T10:08:43.962Z,23.5
2018-05-03T10:09:32.611Z,23.5
2018-05-03T10:10:23.719Z,23.5
2018-05-03T10:11:14.075Z,23.5
2018-05-03T10:12:03.373Z,23.5
2018-05-03T10:12:54.011Z,23.5
2018-05-03T10:13:44.276Z,23.5
2018-05-03T10:14:34.203Z,23.5
2018-05-03T10:15:24.111Z,23.5
2018-05-03T10:16:14.501Z,23.5
2018-05-03T10:17:03.698Z,23.5
2018-05-03T10:17:54.599Z,23.5
2018-05-03T10:18:43.603Z,23.5
2018-05-03T10:19:33.423Z,23.5
2018-05-03T10:20:24.545Z,23.5
2018-05-03T10:21:12.971Z,23.5
2018-05-03T10:22:03.831Z,23.5
2018-05-03T10:22:54.309Z,23.5
2018-05-03T10:23:43.273Z,23.5
2018-05-03T10:24:32.711Z,23.5
2018-05-03T10:25:23.876Z,23.5
2018-05-03T10:26:13.604Z,23.5
2018-05-03T10:27:05.133Z,23.5
2018-05-03T10:27:54.933Z,23.5
2018-05-03T10:28:45.029Z,23.5
2018-05-03T10:29:35.090Z,23.5
2018-05-03T10:30:26.067Z,23.6
2018-05-03T10:31:14.583Z,23.5
2018-05-03T10:32:05.309Z,23.5
2018-05-03T10:32:55.895Z,23.5
2018-05-03T10:33:45.542Z,23.5
2018-05-03T10:34:36.244Z,23.5
2018-05-03T10:35:24.767Z,23.6
2018-05-03T10:36:18.270Z,23.5
2018-05-03T10:37:05.550Z,23.6
2018-05-03T10:37:55.807Z,23.6
2018-05-03T10:38:44.979Z,23.5
2018-05-03T10:39:35.627Z,23.5
2018-05-03T10:40:26.265Z,23.5
2018-05-03T10:41:15.474Z,23.6
2018-05-03T10:42:08.110Z,23.6
2018-05-03T10:42:55.883Z,23.5
2018-05-03T10:43:45.287Z,23.6
2018-05-03T10:44:35.447Z,23.6
2018-05-03T10:45:25.325Z,23.6
2018-05-03T10:46:16.131Z,23.5
2018-05-03T10:47:06.281Z,23.6
2018-05-03T10:47:56.273Z,23.6
2018-05-03T10:48:46.950Z,23.6
2018-05-03T10:49:35.357Z,23.5
2018-05-03T10:50:25.880Z,23.6
2018-05-03T10:51:16.071Z,23.6
2018-05-03T10:52:06.631Z,23.6
2018-05-03T10:52:56.127Z,23.6
2018-05-03T10:53:47.034Z,23.5
2018-05-03T10:54:36.528Z,23.6
2018-05-03T10:55:27.075Z,23.6
2018-05-03T10:56:16.962Z,23.6
2018-05-03T10:57:07.327Z,23.6
2018-05-03T10:57:57.016Z,23.6
2018-05-03T10:58:46.595Z,23.6
2018-05-03T10:59:37.234Z,23.5
2018-05-03T11:00:27.019Z,23.6
2018-05-03T11:01:16.604Z,23.6
2018-05-03T11:02:07.406Z,23.6
2018-05-03T11:02:57.236Z,23.5
2018-05-03T11:03:47.312Z,23.5
2018-05-03T11:04:37.608Z,23.5
2018-05-03T11:05:30.334Z,23.5
2018-05-03T11:06:16.680Z,23.6
2018-05-03T11:07:08.033Z,23.6
2018-05-03T11:07:56.760Z,23.5
2018-05-03T11:08:47.080Z,23.6
2018-05-03T11:09:37.150Z,23.6
2018-05-03T11:10:27.721Z,23.6
2018-05-03T11:11:19.719Z,23.6
2018-05-03T11:12:08.280Z,23.6
2018-05-03T11:12:58.546Z,23.6